Huvudsida
METAR-TAF:

METAR-TAF

Flygplatser :

Jolly Grants flygplats

Dehradun, Indien

latitud: 30-11-23N, longitud: 78-10-49E, höjd: 558 m

Aktuellt väderrapport

Denna rapport gjordes för 35 minuter sedan, klockan 09:30 UTC
Vind 10 kt från sydväst
Temperatur 37°C
Fuktighet 29%
Tryck 1003 hPa
Sikt: 3000 m
Spridda moln på en höjd av 4000 ft
torrdis,

METAR: VIDN 200930Z 22010KT 3000 HZ SCT040 37/16 Q1003 NOSIG

Tid: 15:35 (10:05 UTC)

Väderprognos

Denna rapport gjordes för 5 timmar och 5 minuter sedan, klockan 05:00 UTC
Prognos gäller från 20 kl. 06 UTC till 20 kl. 15 UTC
Vind 8 kt från väst
Sikt: 4000 m
Få moln på en höjd av 3000 ft
torrdis
Blir
från 20 kl. 12 UTC till 20 kl. 14 UTC
Vind 5 kt från nord/nordost
Sikt: 3000 m
Spridda moln på en höjd av 8000 ft
torrdis,

TAF: VIDN 200500Z 2006/2015 27008KT 4000 HZ FEW030 BECMG 2012/2014 02005KT 3000 HZ SCT080

Aktuella väderrapporter och prognoser från 4000 flygplatser (METAR- och TAF-rapporter).

De tillgängliga stationerna syns som gula och röda prickar på kartan.

För musen över prickarna för att se namnen på stationerna.

Klicka sedan för att få väderrapporter och prognoser.

För att ändra kartan: Klicka på de gröna knapparna med ett svart kors på för att zooma in; den gröna knappen med ett streck på för att zooma ut; eller på de gröna pilarna för angränsande kartor.


METAR-TAF: